Nearby METAR Reports

KBED - Bedford,MA, USA
Distance from station: S 11mi, 18km
Updated: Sat, 03-Dec-2022 9:51am EST
Overcast
Overcast
 Wind from S
Wind: S 22 mph , 35 km/h, Gust: 33 mph , 54 km/h
Temperature: 59°F , 15°C
Dew Point: 48°F , 9°C
Humidity: 68%
Barometer: 30.09 inHg , 1019 hPa
Clouds: Overcast
Visibility: 10 miles , 16 km
Cloud details: Mostly Cloudy 3100 ft
Mostly Cloudy 4000 ft
Overcast 4900 ft
2022/12/03 14:51 KBED 031451Z 19019G29KT 10SM BKN031 BKN040 OVC049 15/09 A3009 RMK AO2 PK WND 19030/1420 SLP204 T01500089 58037
KLWM - Lawrence,MA, USA
Distance from station: ENE 12mi, 19km
Updated: Sat, 03-Dec-2022 9:54am EST
Overcast
Overcast
 Wind from SSW
Wind: SSW 14 mph , 22 km/h, Gust: 26 mph , 43 km/h
Temperature: 57°F , 14°C
Dew Point: 48°F , 9°C
Humidity: 72%
Barometer: 30.10 inHg , 1019.3 hPa
Clouds: Overcast
Visibility: 10 miles , 16 km
Cloud details: Overcast 3400 ft
2022/12/03 14:54 KLWM 031454Z 20012G23KT 10SM OVC034 14/09 A3010 RMK AO2 PK WND 19026/1442 PRESFR SLP193 T01440089 58043
 
KASH - Nashua,NH, USA
Distance from station: NW 14mi, 23km
Updated: Sat, 03-Dec-2022 9:56am EST
Light rain, Overcast
Light rain, Overcast
 Wind from varies
Wind: varies 6 mph , 9 km/h
Temperature: 54°F , 12°C
Dew Point: 54°F , 12°C
Humidity: 100%
Barometer: 30.07 inHg , 1018.3 hPa
Summary: Light Rain
Clouds: Overcast
Visibility: 10 miles , 16 km
Cloud details: Overcast 2500 ft
2022/12/03 14:56 KASH 031456Z VRB05KT 10SM -RA OVC025 12/12 A3007 RMK AO2 RAB27 PRESFR SLP188 P0000 60000 T01170117 58044
KFIT - Fitchburg, MA, USA
Distance from station: WSW 22mi, 35km
Updated: Sat, 03-Dec-2022 9:52am EST
Light rain, Overcast
Light rain, Overcast
 Wind from S
Wind: S 16 mph , 26 km/h, Gust: 26 mph , 43 km/h
Temperature: 55°F , 13°C
Dew Point: 46°F , 8°C
Humidity: 72%
Barometer: 30.08 inHg , 1018.6 hPa
Summary: Light Rain
Clouds: Overcast
Visibility: 7 miles , 11 km
Cloud details: Overcast 2400 ft
2022/12/03 14:52 KFIT 031452Z AUTO 19014G23KT 7SM -RA OVC024 13/08 A3008 RMK AO2 PK WND 19026/1426 RAB19 SLP187 P0000 60000 T01280083 58040

Metar display script from Saratoga-Weather.org